createdAt,value
2023-06-22T00:02:35.032Z,84.60
2023-06-22T00:06:17.171Z,84.90
2023-06-22T00:09:59.043Z,85.20
2023-06-22T00:13:40.890Z,85.40
2023-06-22T00:17:22.743Z,85.70
2023-06-22T00:21:05.426Z,85.60
2023-06-22T00:24:47.224Z,85.70
2023-06-22T00:28:30.040Z,85.80
2023-06-22T00:32:11.947Z,86.10
2023-06-22T00:35:56.686Z,86.40
2023-06-22T00:39:38.471Z,86.70
2023-06-22T00:43:20.709Z,86.90
2023-06-22T00:47:03.392Z,87.40
2023-06-22T00:50:45.415Z,87.50
2023-06-22T00:54:27.574Z,87.80
2023-06-22T00:58:11.835Z,88.10
2023-06-22T01:01:53.922Z,88.30
2023-06-22T01:05:37.250Z,88.50
2023-06-22T01:09:32.372Z,88.70
2023-06-22T01:13:40.791Z,88.50
2023-06-22T01:17:24.242Z,88.40
2023-06-22T01:21:10.566Z,89.30
2023-06-22T01:24:55.352Z,89.30
2023-06-22T01:28:49.995Z,89.30
2023-06-22T01:32:34.023Z,89.40
2023-06-22T01:36:17.526Z,90.20
2023-06-22T01:40:00.494Z,90.40
2023-06-22T01:43:43.754Z,90.60
2023-06-22T01:47:26.573Z,90.90
2023-06-22T01:51:08.600Z,91.20
2023-06-22T01:54:50.399Z,91.30
2023-06-22T01:58:33.156Z,91.40
2023-06-22T02:02:20.617Z,91.50
2023-06-22T02:06:09.131Z,91.60
2023-06-22T02:09:53.703Z,91.60
2023-06-22T02:13:37.264Z,91.90
2023-06-22T02:17:19.588Z,92.00
2023-06-22T02:21:01.402Z,91.90
2023-06-22T02:24:43.231Z,91.70
2023-06-22T02:28:25.036Z,91.50
2023-06-22T02:32:07.224Z,91.60
2023-06-22T02:35:50.174Z,91.70
2023-06-22T02:39:32.073Z,91.90
2023-06-22T02:43:17.871Z,91.90
2023-06-22T02:46:59.946Z,92.20
2023-06-22T02:50:41.722Z,92.20
2023-06-22T02:54:23.519Z,92.40
2023-06-22T02:58:05.808Z,92.40
2023-06-22T03:01:47.660Z,92.50
2023-06-22T03:05:29.458Z,92.50
2023-06-22T03:09:11.912Z,92.60
2023-06-22T03:12:53.750Z,92.90
2023-06-22T03:16:35.746Z,92.90
2023-06-22T03:20:17.541Z,93.00
2023-06-22T03:23:59.337Z,93.10
2023-06-22T03:27:42.001Z,93.10
2023-06-22T03:31:24.571Z,93.20
2023-06-22T03:35:07.780Z,93.40
2023-06-22T03:38:50.868Z,93.60
2023-06-22T03:42:32.644Z,93.70
2023-06-22T03:46:14.507Z,93.90
2023-06-22T03:49:56.423Z,94.00
2023-06-22T03:53:38.251Z,94.00
2023-06-22T03:57:20.070Z,93.90
2023-06-22T04:01:01.899Z,94.00
2023-06-22T04:04:43.803Z,94.10
2023-06-22T04:08:25.776Z,94.10
2023-06-22T04:12:08.131Z,94.20
2023-06-22T04:15:49.995Z,94.20
2023-06-22T04:19:31.993Z,94.30
2023-06-22T04:23:14.246Z,94.30
2023-06-22T04:26:56.183Z,94.20
2023-06-22T04:30:47.155Z,94.20
2023-06-22T04:34:29.005Z,94.20
2023-06-22T04:38:14.246Z,94.30
2023-06-22T04:42:01.244Z,94.20
2023-06-22T04:45:43.139Z,94.10
2023-06-22T04:49:33.557Z,94.20
2023-06-22T04:53:15.358Z,94.50
2023-06-22T04:56:59.920Z,94.30
2023-06-22T05:00:41.752Z,94.40
2023-06-22T05:04:24.895Z,94.50
2023-06-22T05:08:07.964Z,94.60
2023-06-22T05:11:49.758Z,94.70
2023-06-22T05:15:37.780Z,94.90
2023-06-22T05:19:19.598Z,95.50
2023-06-22T05:23:01.489Z,95.40
2023-06-22T05:26:43.270Z,95.40
2023-06-22T05:30:25.063Z,95.70
2023-06-22T05:34:06.919Z,96.00
2023-06-22T05:37:49.383Z,96.30
2023-06-22T05:41:31.134Z,96.40
2023-06-22T05:45:13.020Z,96.40
2023-06-22T05:48:54.789Z,96.50
2023-06-22T05:52:36.629Z,96.70
2023-06-22T05:56:18.722Z,96.70
2023-06-22T06:00:00.522Z,96.90
2023-06-22T06:03:42.665Z,97.10
2023-06-22T06:07:24.917Z,97.20
2023-06-22T06:11:06.961Z,97.70
2023-06-22T06:14:48.936Z,98.00
2023-06-22T06:18:30.724Z,98.30
2023-06-22T06:22:12.649Z,98.50
2023-06-22T06:25:54.514Z,98.50
2023-06-22T06:29:36.286Z,98.20
2023-06-22T06:33:18.186Z,97.80
2023-06-22T06:36:59.981Z,97.10
2023-06-22T06:40:42.121Z,96.40
2023-06-22T06:44:23.956Z,95.50
2023-06-22T06:48:05.997Z,94.50
2023-06-22T06:51:47.821Z,93.40
2023-06-22T06:55:34.023Z,91.70
2023-06-22T06:59:16.531Z,90.80
2023-06-22T07:02:58.368Z,89.20
2023-06-22T07:06:40.184Z,86.60
2023-06-22T07:10:22.133Z,84.50
2023-06-22T07:14:04.140Z,83.50
2023-06-22T07:17:46.050Z,81.10
2023-06-22T07:21:27.955Z,79.30
2023-06-22T07:25:10.553Z,77.10
2023-06-22T07:28:52.351Z,74.40
2023-06-22T07:32:34.183Z,72.50
2023-06-22T07:36:16.080Z,70.10
2023-06-22T07:40:00.826Z,68.50
2023-06-22T07:43:42.701Z,66.70
2023-06-22T07:47:27.537Z,65.90
2023-06-22T07:51:09.403Z,65.10
2023-06-22T07:54:51.258Z,64.40
2023-06-22T07:58:33.048Z,63.20
2023-06-22T08:02:14.946Z,62.30
2023-06-22T08:05:56.916Z,60.80
2023-06-22T08:09:38.715Z,60.70
2023-06-22T08:13:20.678Z,59.70
2023-06-22T08:17:02.452Z,59.30
2023-06-22T08:20:44.670Z,57.70
2023-06-22T08:24:26.464Z,57.40
2023-06-22T08:28:08.374Z,56.70
2023-06-22T08:31:50.225Z,55.40
2023-06-22T08:35:32.510Z,55.40
2023-06-22T08:39:14.650Z,54.50
2023-06-22T08:42:56.572Z,53.50
2023-06-22T08:46:39.995Z,53.20
2023-06-22T08:50:21.804Z,52.00
2023-06-22T08:54:03.728Z,51.50
2023-06-22T08:57:45.791Z,52.70
2023-06-22T09:01:27.576Z,51.90
2023-06-22T09:05:09.962Z,52.30
2023-06-22T09:08:51.901Z,52.70
2023-06-22T09:12:34.241Z,54.40
2023-06-22T09:16:16.206Z,55.10
2023-06-22T09:19:58.109Z,53.80
2023-06-22T09:23:40.013Z,52.60
2023-06-22T09:27:21.871Z,52.60
2023-06-22T09:31:03.653Z,52.20
2023-06-22T09:34:45.620Z,50.20
2023-06-22T09:38:27.392Z,50.10
2023-06-22T09:42:09.505Z,49.30
2023-06-22T09:45:51.567Z,48.10
2023-06-22T09:49:47.402Z,47.70
2023-06-22T09:53:30.092Z,46.70
2023-06-22T09:57:13.241Z,45.60
2023-06-22T10:00:55.495Z,44.80
2023-06-22T10:04:37.800Z,45.50
2023-06-22T10:08:20.019Z,44.30
2023-06-22T10:12:01.862Z,44.70
2023-06-22T10:15:43.963Z,43.80
2023-06-22T10:19:25.764Z,44.10
2023-06-22T10:23:07.636Z,45.10
2023-06-22T10:26:49.546Z,46.10
2023-06-22T10:30:31.491Z,46.90
2023-06-22T10:34:13.295Z,46.50
2023-06-22T10:37:55.995Z,45.10
2023-06-22T10:41:37.779Z,45.70
2023-06-22T10:45:19.621Z,43.90
2023-06-22T10:49:01.437Z,42.10
2023-06-22T10:52:43.364Z,40.30
2023-06-22T10:56:25.176Z,40.80
2023-06-22T11:00:08.186Z,39.30
2023-06-22T11:03:50.028Z,38.40
2023-06-22T11:07:32.323Z,38.80
2023-06-22T11:11:14.145Z,38.30
2023-06-22T11:14:59.577Z,39.20
2023-06-22T11:18:41.724Z,38.10
2023-06-22T11:22:23.535Z,36.80
2023-06-22T11:26:05.313Z,37.60
2023-06-22T11:29:47.165Z,38.20
2023-06-22T11:33:28.960Z,37.80
2023-06-22T11:37:10.776Z,38.80
2023-06-22T11:40:52.546Z,37.80
2023-06-22T11:44:34.336Z,36.80
2023-06-22T11:48:16.151Z,36.60
2023-06-22T11:51:58.032Z,36.60
2023-06-22T11:55:39.795Z,36.10
2023-06-22T11:59:23.415Z,37.50
2023-06-22T12:03:05.666Z,38.50
2023-06-22T12:06:47.568Z,39.70
2023-06-22T12:10:32.671Z,39.00
2023-06-22T12:14:14.739Z,37.70
2023-06-22T12:17:56.576Z,37.00
2023-06-22T12:21:39.355Z,34.50
2023-06-22T12:25:21.272Z,35.00
2023-06-22T12:29:03.173Z,35.20
2023-06-22T12:32:44.952Z,34.10
2023-06-22T12:36:26.771Z,33.90
2023-06-22T12:40:09.345Z,33.50
2023-06-22T12:43:51.151Z,33.70
2023-06-22T12:47:33.087Z,34.50
2023-06-22T12:51:23.062Z,34.70
2023-06-22T12:55:05.106Z,36.70
2023-06-22T12:58:47.045Z,36.40
2023-06-22T13:02:28.869Z,37.60
2023-06-22T13:06:10.752Z,39.50
2023-06-22T13:09:53.358Z,39.90
2023-06-22T13:13:35.534Z,38.90
2023-06-22T13:17:17.520Z,37.00
2023-06-22T13:20:59.429Z,36.80
2023-06-22T13:24:41.186Z,35.40
2023-06-22T13:28:28.332Z,35.20
2023-06-22T13:32:10.762Z,34.10
2023-06-22T13:35:52.590Z,34.50
2023-06-22T13:39:34.397Z,33.90
2023-06-22T13:43:16.965Z,33.10
2023-06-22T13:46:58.929Z,32.70
2023-06-22T13:50:40.799Z,32.40
2023-06-22T13:54:29.323Z,32.40
2023-06-22T13:58:12.022Z,32.90
2023-06-22T14:01:53.821Z,33.60
2023-06-22T14:05:35.659Z,34.60
2023-06-22T14:09:17.500Z,35.30
2023-06-22T14:13:01.095Z,36.20
2023-06-22T14:16:42.853Z,37.90
2023-06-22T14:20:24.698Z,38.80
2023-06-22T14:24:06.694Z,39.20
2023-06-22T14:27:48.552Z,40.00
2023-06-22T14:31:30.470Z,40.40
2023-06-22T14:35:12.429Z,39.90
2023-06-22T14:38:54.256Z,41.10
2023-06-22T14:42:36.406Z,41.10
2023-06-22T14:46:21.442Z,41.40
2023-06-22T14:50:03.559Z,41.40
2023-06-22T14:53:46.580Z,42.30
2023-06-22T14:57:28.551Z,42.20
2023-06-22T15:01:10.386Z,41.80
2023-06-22T15:04:54.110Z,42.40
2023-06-22T15:08:37.722Z,43.20
2023-06-22T15:12:19.602Z,42.60
2023-06-22T15:16:02.274Z,42.50
2023-06-22T15:19:44.094Z,43.50
2023-06-22T15:23:26.851Z,42.80
2023-06-22T15:27:08.730Z,42.60
2023-06-22T15:30:50.964Z,42.00
2023-06-22T15:34:32.917Z,43.00
2023-06-22T15:38:14.818Z,42.50
2023-06-22T15:41:56.907Z,43.20
2023-06-22T15:45:38.731Z,41.10
2023-06-22T15:49:20.615Z,41.70
2023-06-22T15:53:04.684Z,42.60
2023-06-22T15:56:46.585Z,41.80
2023-06-22T16:00:28.876Z,43.70
2023-06-22T16:04:10.879Z,43.60
2023-06-22T16:07:52.682Z,41.50
2023-06-22T16:11:34.490Z,42.80
2023-06-22T16:15:16.405Z,43.50
2023-06-22T16:18:58.268Z,42.90
2023-06-22T16:22:40.375Z,44.10
2023-06-22T16:26:22.301Z,42.90
2023-06-22T16:30:04.592Z,43.40
2023-06-22T16:33:49.064Z,43.10
2023-06-22T16:37:30.930Z,43.20
2023-06-22T16:41:13.714Z,42.10
2023-06-22T16:44:55.539Z,42.30
2023-06-22T16:48:38.208Z,42.80
2023-06-22T16:52:20.125Z,42.00
2023-06-22T16:56:02.121Z,41.30
2023-06-22T16:59:43.888Z,41.70
2023-06-22T17:03:34.692Z,42.10
2023-06-22T17:07:20.739Z,41.60
2023-06-22T17:11:02.789Z,42.60
2023-06-22T17:14:45.572Z,42.30
2023-06-22T17:18:27.682Z,42.80
2023-06-22T17:22:09.472Z,42.50
2023-06-22T17:25:53.984Z,43.50
2023-06-22T17:29:36.021Z,44.30
2023-06-22T17:33:20.239Z,43.60
2023-06-22T17:37:02.720Z,43.70
2023-06-22T17:40:44.534Z,44.20
2023-06-22T17:44:29.526Z,44.30
2023-06-22T17:48:11.782Z,44.60
2023-06-22T17:51:54.063Z,44.70
2023-06-22T17:55:35.943Z,45.20
2023-06-22T17:59:19.805Z,46.40
2023-06-22T18:03:01.831Z,46.90
2023-06-22T18:06:46.533Z,46.90
2023-06-22T18:10:30.176Z,47.30
2023-06-22T18:14:14.703Z,47.30
2023-06-22T18:17:56.592Z,48.10
2023-06-22T18:21:38.868Z,48.30
2023-06-22T18:25:21.351Z,48.20
2023-06-22T18:29:04.265Z,48.30
2023-06-22T18:32:46.168Z,48.70
2023-06-22T18:36:30.707Z,49.30
2023-06-22T18:40:17.959Z,48.80
2023-06-22T18:44:01.202Z,47.80
2023-06-22T18:47:57.400Z,48.30
2023-06-22T18:52:04.259Z,48.20
2023-06-22T18:55:51.366Z,48.40
2023-06-22T18:59:46.741Z,49.60
2023-06-22T19:03:33.207Z,49.70
2023-06-22T19:07:15.415Z,50.40
2023-06-22T19:11:13.691Z,51.10
2023-06-22T19:15:20.478Z,50.70
2023-06-22T19:19:14.210Z,51.00
2023-06-22T19:22:58.361Z,50.70
2023-06-22T19:26:51.187Z,50.90
2023-06-22T19:30:33.655Z,51.40
2023-06-22T19:34:16.087Z,51.70
2023-06-22T19:37:57.980Z,52.20
2023-06-22T19:41:40.302Z,52.30
2023-06-22T19:45:22.507Z,52.20
2023-06-22T19:49:04.355Z,51.90
2023-06-22T19:52:48.381Z,53.00
2023-06-22T19:56:30.505Z,53.20
2023-06-22T20:00:14.114Z,53.40
2023-06-22T20:03:56.743Z,53.50
2023-06-22T20:07:43.095Z,54.20
2023-06-22T20:11:30.619Z,54.50
2023-06-22T20:15:21.095Z,54.80
2023-06-22T20:19:12.757Z,54.80
2023-06-22T20:22:58.259Z,55.30
2023-06-22T20:26:41.488Z,55.90
2023-06-22T20:30:23.490Z,56.40
2023-06-22T20:34:05.347Z,56.90
2023-06-22T20:37:48.704Z,57.40
2023-06-22T20:41:32.618Z,57.60
2023-06-22T20:45:14.457Z,58.40
2023-06-22T20:48:56.291Z,58.50
2023-06-22T20:52:41.193Z,59.20
2023-06-22T20:56:23.008Z,59.40
2023-06-22T21:00:08.814Z,59.80
2023-06-22T21:03:50.745Z,60.00
2023-06-22T21:07:32.618Z,60.30
2023-06-22T21:11:14.559Z,60.60
2023-06-22T21:14:56.745Z,61.40
2023-06-22T21:18:39.184Z,61.20
2023-06-22T21:22:21.336Z,61.20
2023-06-22T21:26:03.182Z,61.30
2023-06-22T21:29:44.994Z,61.10
2023-06-22T21:33:26.854Z,60.90
2023-06-22T21:37:08.691Z,61.40
2023-06-22T21:40:50.491Z,62.20
2023-06-22T21:44:32.330Z,62.70
2023-06-22T21:48:14.128Z,62.90
2023-06-22T21:51:55.906Z,63.10
2023-06-22T21:55:37.744Z,63.50
2023-06-22T21:59:19.558Z,64.40
2023-06-22T22:03:01.493Z,66.30
2023-06-22T22:06:43.579Z,66.20
2023-06-22T22:10:25.357Z,66.40
2023-06-22T22:14:09.766Z,66.90
2023-06-22T22:17:51.655Z,67.40
2023-06-22T22:21:33.837Z,68.00
2023-06-22T22:25:15.630Z,68.40
2023-06-22T22:28:58.249Z,68.90
2023-06-22T22:32:40.095Z,69.50
2023-06-22T22:36:21.916Z,70.30
2023-06-22T22:40:07.847Z,71.00
2023-06-22T22:43:49.647Z,71.70
2023-06-22T22:47:32.149Z,72.00
2023-06-22T22:51:14.315Z,72.70
2023-06-22T22:54:57.060Z,73.20
2023-06-22T22:58:39.072Z,73.40
2023-06-22T23:02:23.076Z,73.50
2023-06-22T23:06:05.138Z,73.60
2023-06-22T23:09:49.101Z,73.70
2023-06-22T23:13:30.995Z,74.00
2023-06-22T23:17:12.869Z,74.00
2023-06-22T23:20:54.693Z,74.20
2023-06-22T23:24:37.149Z,74.40
2023-06-22T23:28:25.703Z,74.60
2023-06-22T23:32:18.337Z,74.80
2023-06-22T23:36:00.595Z,75.40
2023-06-22T23:39:44.616Z,75.90
2023-06-22T23:43:26.447Z,76.40
2023-06-22T23:47:08.284Z,77.00
2023-06-22T23:50:51.008Z,77.20
2023-06-22T23:54:32.778Z,77.50
2023-06-22T23:58:18.617Z,78.10
